Adena, OH

5:06 PM EDT on August 30, 2014 (GMT -0400)
OHDOT 109-SR22 @ SR151 | Change Station
CLOSE
Current Station
Personal Weather Station
Location: Hopedale, OH
Elevation: 1198 ft
Nearby Weather Stations

Elev 1198 ft 40.33 °N, 80.92 °W | Updated 32 minutes ago

Partly Cloudy
Partly Cloudy
88 °F
Feels Like 91 °F
N
1
Wind Variable Wind from North
Gusts 11.0 mph

Today
High -- | Low -- °F
--% Chance of Precip.
Yesterday
High -- | Low -- °F
Precip. -- in
6:49 AM 7:58 PM
Waxing Crescent, 24% visible
Pressure 30.04 in
Visibility 10.0 miles
Clouds Clear
Heat Index 91 °F
Dew Point 67 °F
Humidity 50%
Rainfall -999.00 in
Snow Depth Not available.
UV 4 out of 12
Pollen 10.20 out of 12
Air Quality Not available.
Flu Activity Not available.
METAR KHLG 302053Z AUTO 21008KT 10SM CLR 30/19 A3005 RMK AO2 SLP170 T03000189 56013

More Conditions Fewer Conditions

Pressure 30.04 in
Visibility 10.0 miles
Clouds Clear
Heat Index 91 °F
Dew Point 67 °F
Humidity 50%
Rainfall -999.00 in
Snow Depth Not available.
UV 4 out of 12
Pollen 10.20 out of 12
Air Quality Not available.
Flu Activity Not available.
METAR KHLG 302053Z AUTO 21008KT 10SM CLR 30/19 A3005 RMK AO2 SLP170 T03000189 56013

More Conditions Fewer Conditions

10-Day Weather Forecast

Almanac

Astronomy

Aug. 30, 2014 Rise Set
Actual Time 6:49 AM EDT 7:58 PM EDT
Civil Twilight 6:21 AM EDT 8:26 PM EDT
Nautical Twilight 5:47 AM EDT 8:59 PM EDT
Astronomical Twilight 5:12 AM EDT 9:34 PM EDT
Moon 11:35 AM EDT 10:31 PM EDT
Length of Visible Light 14h 05m
Length of Day
13h 09m
Tomorrow will be 2m 31s shorter.
Waxing Crescent, 24% of the Moon is Illuminated
Today
Waxing Crescent
Sep 2
First Quarter
Sep 8
Full
Sep 15
Last Quarter
Sep 24
New

Today's Extremes

State Highs State Lows

Community

WunderPhotos

Upload Photos

1,748,627 photos uploaded!

WunderBlogs® & News

Nearby

Snow Depth

Station Depth Elevation
No new snow has been reported.

Earthquake Activity

City Distance Mag. Time & Date
No recent earthquake activity has been reported nearby.
Minimum magnitude displayed is 2.5.

Coastal Water Temperatures

Place Temperature
No Stations Reporting

Nearby Weather Stations